Time;durP1;ratioP1;P1;durP2;ratioP2;P2;SDS_P1;SDS_P2;PMS_P1;PMS_P2;Temp;Humidity;BMP_temperature;BMP_pressure;BME280_temperature;BME280_humidity;BME280_pressure;Samples;Min_cycle;Max_cycle;Signal;HPM_P1;HPM_P2
2022/05/10 00:02:12;;;;;;;13.43;5.32;;;;;;;;;;5071994;28;20656;-63
2022/05/10 00:04:39;;;;;;;10.73;4.90;;;;;;;;;;5062103;28;20502;-61
2022/05/10 00:07:05;;;;;;;11.02;4.97;;;;;;;;;;5051915;28;20013;-63
2022/05/10 00:09:31;;;;;;;11.13;5.25;;;;;;;;;;5067738;28;20487;-63
2022/05/10 00:11:58;;;;;;;13.45;5.63;;;;;;;;;;5070947;28;20149;-63
2022/05/10 00:14:27;;;;;;;14.38;5.72;;;;;;;;;;5071862;28;20028;-62
2022/05/10 00:16:53;;;;;;;9.07;4.70;;;;;;;;;;5071807;28;20031;-64
2022/05/10 00:19:21;;;;;;;11.85;5.90;;;;;;;;;;5071558;28;20418;-63
2022/05/10 00:21:47;;;;;;;12.23;4.97;;;;;;;;;;5071811;28;20067;-62
2022/05/10 00:24:13;;;;;;;8.52;4.75;;;;;;;;;;5071694;28;20035;-62
2022/05/10 00:26:40;;;;;;;8.68;5.00;;;;;;;;;;5052726;28;20049;-62
2022/05/10 00:29:06;;;;;;;12.05;5.32;;;;;;;;;;5051012;28;20535;-63
2022/05/10 00:31:32;;;;;;;11.05;5.20;;;;;;;;;;5051350;28;20028;-63
2022/05/10 00:33:59;;;;;;;9.65;5.18;;;;;;;;;;5051543;28;20032;-62
2022/05/10 00:36:26;;;;;;;10.55;4.90;;;;;;;;;;5051612;28;20033;-60
2022/05/10 00:38:52;;;;;;;13.75;4.75;;;;;;;;;;5060245;28;20021;-62
2022/05/10 00:41:18;;;;;;;11.85;4.68;;;;;;;;;;5070248;28;20165;-63
2022/05/10 00:43:46;;;;;;;12.30;4.75;;;;;;;;;;5070506;28;20032;-63
2022/05/10 00:46:15;;;;;;;10.40;4.40;;;;;;;;;;5071004;28;20070;-63
2022/05/10 00:48:59;;;;;;;6.97;4.18;;;;;;;;;;5070151;28;20024;-62
2022/05/10 00:51:25;;;;;;;;;;;;;;;;;;5071265;28;20104;-63
2022/05/10 00:53:54;;;;;;;9.00;4.45;;;;;;;;;;5070768;28;19940;-63
2022/05/10 00:56:41;;;;;;;8.68;4.60;;;;;;;;;;5070786;28;20071;-62
2022/05/10 00:59:10;;;;;;;9.02;4.28;;;;;;;;;;5056714;28;20044;-62
2022/05/10 01:01:37;;;;;;;10.27;5.00;;;;;;;;;;5051082;28;20067;-63
2022/05/10 01:04:06;;;;;;;11.98;5.78;;;;;;;;;;5051086;28;20025;-62
2022/05/10 01:06:34;;;;;;;15.13;6.07;;;;;;;;;;5061438;28;20032;-63
2022/05/10 01:09:08;;;;;;;14.25;5.78;;;;;;;;;;5071016;28;20052;-63
2022/05/10 01:11:38;;;;;;;15.57;6.55;;;;;;;;;;5071196;28;20027;-63
2022/05/10 01:14:09;;;;;;;13.50;6.80;;;;;;;;;;5071092;28;20027;-62
2022/05/10 01:16:35;;;;;;;16.38;6.72;;;;;;;;;;5061070;28;20118;-63
2022/05/10 01:19:01;;;;;;;17.42;7.20;;;;;;;;;;5066313;28;20028;-62
2022/05/10 01:21:46;;;;;;;14.98;8.60;;;;;;;;;;5050945;28;20468;-63
2022/05/10 01:24:41;;;;;;;13.65;6.20;;;;;;;;;;5050608;28;20064;-63
2022/05/10 01:27:12;;;;;;;14.88;6.40;;;;;;;;;;5050461;28;20483;-63
2022/05/10 01:29:54;;;;;;;13.93;6.35;;;;;;;;;;5050538;28;20531;-63
2022/05/10 01:35:11;;;;;;;15.30;6.93;;;;;;;;;;5050452;28;20079;-63
2022/05/10 01:37:38;;;;;;;16.42;6.30;;;;;;;;;;5050255;28;20417;-60
2022/05/10 01:40:25;;;;;;;10.82;6.03;;;;;;;;;;5053993;28;20033;-61
2022/05/10 01:42:55;;;;;;;12.15;6.18;;;;;;;;;;5073755;28;20055;-62
2022/05/10 01:45:34;;;;;;;11.52;5.93;;;;;;;;;;5074411;28;20094;-62
2022/05/10 01:48:02;;;;;;;16.20;7.22;;;;;;;;;;5074234;28;20471;-62
2022/05/10 01:50:33;;;;;;;15.95;7.22;;;;;;;;;;5073126;28;20025;-62
2022/05/10 01:53:01;;;;;;;19.48;7.55;;;;;;;;;;5074066;28;20035;-61
2022/05/10 01:55:32;;;;;;;13.38;7.75;;;;;;;;;;5089401;28;20036;-61
2022/05/10 01:58:01;;;;;;;16.17;7.82;;;;;;;;;;5073799;28;20017;-61
2022/05/10 02:00:28;;;;;;;22.85;10.48;;;;;;;;;;5073969;28;20047;-62
2022/05/10 02:03:12;;;;;;;22.38;11.40;;;;;;;;;;5074045;28;20467;-61
2022/05/10 02:05:38;;;;;;;20.52;9.80;;;;;;;;;;5066131;28;20035;-61
2022/05/10 02:08:08;;;;;;;23.10;11.75;;;;;;;;;;5073282;28;20029;-62
2022/05/10 02:10:39;;;;;;;20.35;10.75;;;;;;;;;;5074045;28;20112;-61
2022/05/10 02:13:10;;;;;;;25.55;11.90;;;;;;;;;;5073936;28;20074;-62
2022/05/10 02:15:45;;;;;;;25.80;11.88;;;;;;;;;;5073509;28;20391;-61
2022/05/10 02:18:19;;;;;;;22.73;11.80;;;;;;;;;;5073724;28;20090;-61
2022/05/10 02:20:55;;;;;;;21.77;11.95;;;;;;;;;;5073741;28;20086;-62
2022/05/10 02:23:44;;;;;;;24.55;11.63;;;;;;;;;;5073126;28;20029;-61
2022/05/10 02:26:12;;;;;;;20.88;11.10;;;;;;;;;;5053172;28;20036;-62
2022/05/10 02:28:42;;;;;;;21.95;10.60;;;;;;;;;;5053399;28;20043;-62
2022/05/10 02:31:11;;;;;;;24.80;11.38;;;;;;;;;;5053260;28;20075;-62
2022/05/10 02:33:38;;;;;;;19.80;10.52;;;;;;;;;;5053297;28;20497;-62
2022/05/10 02:36:04;;;;;;;21.63;10.70;;;;;;;;;;5053215;28;20025;-62
2022/05/10 02:38:32;;;;;;;21.73;11.60;;;;;;;;;;5053318;28;20037;-62
2022/05/10 02:41:00;;;;;;;27.65;13.02;;;;;;;;;;5063108;28;20491;-62
2022/05/10 02:43:36;;;;;;;27.70;13.65;;;;;;;;;;5073464;28;20036;-62
2022/05/10 02:46:03;;;;;;;27.13;14.15;;;;;;;;;;5073415;28;20047;-62
2022/05/10 02:48:36;;;;;;;28.17;13.48;;;;;;;;;;5073460;28;20063;-62
2022/05/10 02:51:03;;;;;;;30.48;14.10;;;;;;;;;;5073397;28;20032;-62
2022/05/10 02:53:29;;;;;;;29.92;13.93;;;;;;;;;;5071688;28;20027;-62
2022/05/10 02:55:57;;;;;;;27.90;13.98;;;;;;;;;;5073169;28;20497;-62
2022/05/10 02:58:38;;;;;;;27.58;13.77;;;;;;;;;;5072511;28;20024;-61
2022/05/10 03:01:18;;;;;;;26.88;13.23;;;;;;;;;;5072937;28;20510;-61
2022/05/10 03:03:44;;;;;;;25.73;12.00;;;;;;;;;;5073049;28;20593;-61
2022/05/10 03:06:14;;;;;;;21.40;11.60;;;;;;;;;;5072927;28;20020;-62
2022/05/10 03:08:40;;;;;;;18.52;9.48;;;;;;;;;;5072928;28;20379;-62
2022/05/10 03:11:06;;;;;;;18.00;8.20;;;;;;;;;;5073090;28;20024;-61
2022/05/10 03:13:32;;;;;;;9.88;5.82;;;;;;;;;;5072961;28;20024;-61
2022/05/10 03:15:58;;;;;;;10.02;5.50;;;;;;;;;;5070925;28;20032;-61
2022/05/10 03:18:24;;;;;;;9.68;5.30;;;;;;;;;;5072833;28;20020;-61
2022/05/10 03:20:50;;;;;;;9.70;4.93;;;;;;;;;;5072569;28;20037;-61
2022/05/10 03:23:17;;;;;;;8.32;4.88;;;;;;;;;;5072259;28;20459;-61
2022/05/10 03:25:43;;;;;;;11.02;5.30;;;;;;;;;;5072307;28;20100;-62
2022/05/10 03:28:09;;;;;;;8.90;4.28;;;;;;;;;;5072398;28;20021;-62
2022/05/10 03:30:35;;;;;;;9.82;4.72;;;;;;;;;;5072424;28;20032;-61
2022/05/10 03:33:01;;;;;;;9.02;4.63;;;;;;;;;;5072196;28;20488;-61
2022/05/10 03:35:27;;;;;;;12.88;5.45;;;;;;;;;;5072415;28;20028;-61
2022/05/10 03:37:54;;;;;;;9.85;4.78;;;;;;;;;;5072331;28;20122;-61
2022/05/10 03:40:20;;;;;;;10.77;5.25;;;;;;;;;;5066317;28;20037;-61
2022/05/10 03:42:50;;;;;;;10.70;5.18;;;;;;;;;;5052411;28;20017;-61
2022/05/10 03:45:18;;;;;;;11.80;5.65;;;;;;;;;;5058925;28;20029;-62
2022/05/10 03:47:45;;;;;;;12.35;5.60;;;;;;;;;;5072287;28;20033;-62
2022/05/10 03:50:12;;;;;;;11.68;6.07;;;;;;;;;;5071476;28;20052;-62
2022/05/10 03:52:40;;;;;;;9.77;5.22;;;;;;;;;;5071813;28;20046;-61
2022/05/10 03:55:11;;;;;;;10.57;6.10;;;;;;;;;;5072115;28;20132;-62
2022/05/10 03:57:37;;;;;;;14.23;7.93;;;;;;;;;;5072051;28;20119;-62
2022/05/10 04:00:06;;;;;;;18.48;8.52;;;;;;;;;;5071520;28;20057;-62
2022/05/10 04:02:32;;;;;;;17.20;9.30;;;;;;;;;;5071851;28;20032;-62
2022/05/10 04:04:58;;;;;;;21.02;10.65;;;;;;;;;;5071263;28;20017;-62
2022/05/10 04:07:24;;;;;;;18.52;10.40;;;;;;;;;;5055180;28;20027;-61
2022/05/10 04:09:50;;;;;;;19.40;11.40;;;;;;;;;;5082524;28;20034;-62
2022/05/10 04:12:16;;;;;;;21.08;11.20;;;;;;;;;;5091876;28;20028;-61
2022/05/10 04:14:43;;;;;;;22.98;12.20;;;;;;;;;;5091860;28;20470;-62
2022/05/10 04:17:09;;;;;;;25.58;13.00;;;;;;;;;;5091937;28;20062;-62
2022/05/10 04:19:35;;;;;;;26.40;12.88;;;;;;;;;;5092218;28;20505;-62
2022/05/10 04:22:01;;;;;;;25.08;12.98;;;;;;;;;;5091744;28;20073;-62
2022/05/10 04:24:27;;;;;;;27.85;14.45;;;;;;;;;;5057156;28;20390;-62
2022/05/10 04:26:54;;;;;;;28.10;13.77;;;;;;;;;;5050131;28;20530;-62
2022/05/10 04:29:20;;;;;;;34.97;15.10;;;;;;;;;;5051450;28;20020;-61
2022/05/10 04:31:46;;;;;;;29.15;14.52;;;;;;;;;;5050905;28;20416;-62
2022/05/10 04:34:12;;;;;;;28.95;14.02;;;;;;;;;;5051170;28;20029;-62
2022/05/10 04:36:39;;;;;;;30.90;14.75;;;;;;;;;;5051151;28;20101;-62
2022/05/10 04:39:05;;;;;;;32.33;15.20;;;;;;;;;;5051556;28;20017;-61
2022/05/10 04:41:32;;;;;;;33.38;16.98;;;;;;;;;;5067335;28;20032;-62
2022/05/10 04:44:04;;;;;;;34.13;16.42;;;;;;;;;;5071105;28;20047;-62
2022/05/10 04:46:30;;;;;;;30.40;15.82;;;;;;;;;;5071159;28;20032;-61
2022/05/10 04:48:57;;;;;;;35.55;17.98;;;;;;;;;;5070904;28;20111;-62
2022/05/10 04:51:24;;;;;;;36.08;18.63;;;;;;;;;;5070950;28;20021;-62
2022/05/10 04:53:50;;;;;;;31.40;17.40;;;;;;;;;;5070892;28;20056;-62
2022/05/10 04:56:16;;;;;;;31.25;15.73;;;;;;;;;;5070727;28;20024;-62
2022/05/10 04:58:43;;;;;;;40.15;18.02;;;;;;;;;;5070176;28;20048;-63
2022/05/10 05:01:10;;;;;;;35.38;18.10;;;;;;;;;;5070861;28;20068;-62
2022/05/10 05:03:36;;;;;;;31.17;17.15;;;;;;;;;;5071200;28;20115;-62
2022/05/10 05:06:03;;;;;;;34.03;18.02;;;;;;;;;;5071701;28;20031;-62
2022/05/10 05:08:29;;;;;;;31.92;17.42;;;;;;;;;;5070965;28;20021;-62
2022/05/10 05:10:57;;;;;;;29.98;15.82;;;;;;;;;;5071329;28;20021;-62
2022/05/10 05:13:24;;;;;;;26.70;15.48;;;;;;;;;;5070594;28;20017;-62
2022/05/10 05:15:50;;;;;;;29.25;15.02;;;;;;;;;;5071962;28;20027;-62
2022/05/10 05:18:17;;;;;;;26.00;15.68;;;;;;;;;;5074984;28;20039;-61
2022/05/10 05:20:43;;;;;;;27.98;14.18;;;;;;;;;;5074956;28;20037;-61
2022/05/10 05:23:10;;;;;;;25.73;13.52;;;;;;;;;;5074783;28;20025;-62
2022/05/10 05:25:38;;;;;;;24.08;12.95;;;;;;;;;;5074551;28;20032;-61
2022/05/10 05:28:05;;;;;;;28.83;13.10;;;;;;;;;;5075074;28;20033;-61
2022/05/10 05:30:31;;;;;;;26.38;13.48;;;;;;;;;;5072448;28;20391;-61
2022/05/10 05:32:57;;;;;;;23.23;11.75;;;;;;;;;;5054689;28;20018;-61
2022/05/10 05:35:23;;;;;;;23.38;11.98;;;;;;;;;;5054584;28;20108;-61
2022/05/10 05:37:50;;;;;;;24.48;11.93;;;;;;;;;;5054454;28;20032;-62
2022/05/10 05:40:17;;;;;;;25.70;11.68;;;;;;;;;;5062041;28;20165;-61
2022/05/10 05:42:43;;;;;;;22.67;11.63;;;;;;;;;;5074472;28;20113;-61
2022/05/10 05:45:11;;;;;;;26.48;12.75;;;;;;;;;;5074430;28;20107;-61
2022/05/10 05:47:37;;;;;;;26.58;13.80;;;;;;;;;;5073608;28;20017;-61
2022/05/10 05:50:04;;;;;;;21.73;12.02;;;;;;;;;;5074310;28;20070;-61
2022/05/10 05:52:30;;;;;;;25.85;13.10;;;;;;;;;;5074192;28;20499;-63
2022/05/10 05:54:57;;;;;;;25.50;12.20;;;;;;;;;;5074162;28;20114;-64
2022/05/10 05:57:23;;;;;;;24.02;12.23;;;;;;;;;;5073778;28;20099;-61
2022/05/10 05:59:52;;;;;;;21.65;11.75;;;;;;;;;;5073705;28;20483;-62
2022/05/10 06:02:19;;;;;;;17.95;11.52;;;;;;;;;;5073818;28;20071;-62
2022/05/10 06:04:46;;;;;;;21.10;10.10;;;;;;;;;;5072959;28;20475;-62
2022/05/10 06:07:13;;;;;;;18.88;10.55;;;;;;;;;;5073582;28;20036;-62
2022/05/10 06:09:40;;;;;;;23.42;12.65;;;;;;;;;;5074054;28;20033;-62
2022/05/10 06:12:07;;;;;;;22.55;10.23;;;;;;;;;;5074004;28;20103;-62
2022/05/10 06:14:34;;;;;;;15.40;9.60;;;;;;;;;;5074022;28;20017;-62
2022/05/10 06:17:00;;;;;;;17.15;10.43;;;;;;;;;;5073637;28;20514;-63
2022/05/10 06:19:27;;;;;;;19.13;10.68;;;;;;;;;;5073475;28;20420;-62
2022/05/10 06:21:55;;;;;;;18.73;10.07;;;;;;;;;;5070400;28;20126;-62
2022/05/10 06:24:21;;;;;;;19.40;10.05;;;;;;;;;;5067616;28;20032;-62
2022/05/10 06:26:47;;;;;;;17.80;10.23;;;;;;;;;;5083977;28;20038;-62
2022/05/10 06:29:14;;;;;;;21.95;10.75;;;;;;;;;;5082233;28;20028;-62
2022/05/10 06:31:43;;;;;;;21.13;11.80;;;;;;;;;;5076366;28;20459;-62
2022/05/10 06:34:10;;;;;;;21.83;12.50;;;;;;;;;;5083037;28;20501;-62
2022/05/10 06:36:36;;;;;;;22.08;11.68;;;;;;;;;;5073064;28;20029;-62
2022/05/10 06:39:03;;;;;;;29.83;13.35;;;;;;;;;;5078474;28;20024;-61
2022/05/10 06:41:31;;;;;;;21.77;11.23;;;;;;;;;;5060735;28;20039;-61
2022/05/10 06:43:57;;;;;;;27.20;13.05;;;;;;;;;;5076697;28;20032;-62
2022/05/10 06:46:23;;;;;;;28.05;11.68;;;;;;;;;;5071995;28;20029;-62
2022/05/10 06:48:50;;;;;;;24.48;12.10;;;;;;;;;;5073560;28;20025;-62
2022/05/10 06:51:18;;;;;;;21.08;12.73;;;;;;;;;;5084843;28;20035;-63
2022/05/10 06:53:44;;;;;;;26.92;11.27;;;;;;;;;;5082101;28;20406;-64
2022/05/10 06:56:11;;;;;;;26.80;12.50;;;;;;;;;;5066762;28;20245;-63
2022/05/10 06:58:37;;;;;;;23.20;10.65;;;;;;;;;;5072889;28;20047;-63
2022/05/10 07:01:07;;;;;;;20.80;10.15;;;;;;;;;;5067939;28;20040;-64
2022/05/10 07:03:34;;;;;;;24.50;12.10;;;;;;;;;;5073467;28;20028;-63
2022/05/10 07:06:01;;;;;;;22.60;10.52;;;;;;;;;;5087951;28;20495;-63
2022/05/10 07:08:28;;;;;;;17.38;11.02;;;;;;;;;;5072026;28;20031;-63
2022/05/10 07:10:54;;;;;;;24.52;11.40;;;;;;;;;;5071561;28;20029;-64
2022/05/10 07:13:22;;;;;;;19.77;9.52;;;;;;;;;;5063524;28;20037;-64
2022/05/10 07:15:49;;;;;;;19.80;11.40;;;;;;;;;;5067522;28;20099;-63
2022/05/10 07:18:16;;;;;;;19.33;9.25;;;;;;;;;;5065528;28;20013;-63
2022/05/10 07:20:43;;;;;;;19.38;10.20;;;;;;;;;;5063657;28;20490;-62
2022/05/10 07:23:10;;;;;;;24.65;10.50;;;;;;;;;;5072579;28;20036;-63
2022/05/10 07:25:37;;;;;;;17.27;10.50;;;;;;;;;;5068710;28;20483;-63
2022/05/10 07:28:03;;;;;;;20.08;10.27;;;;;;;;;;5068508;28;20025;-64
2022/05/10 07:30:30;;;;;;;21.05;9.68;;;;;;;;;;5068640;28;20029;-63
2022/05/10 07:32:57;;;;;;;20.02;10.07;;;;;;;;;;5073919;28;20059;-63
2022/05/10 07:38:09;;;;;;;16.58;8.85;;;;;;;;;;5056425;28;20032;-63
2022/05/10 07:40:36;;;;;;;19.50;8.85;;;;;;;;;;5049782;28;20037;-63
2022/05/10 07:43:02;;;;;;;19.90;9.25;;;;;;;;;;5079447;28;20478;-63
2022/05/10 07:45:29;;;;;;;17.40;8.38;;;;;;;;;;5091911;28;20060;-63
2022/05/10 07:47:55;;;;;;;16.42;7.63;;;;;;;;;;5072335;28;20070;-63
2022/05/10 07:50:21;;;;;;;19.20;7.97;;;;;;;;;;5057126;28;20025;-64
2022/05/10 07:52:47;;;;;;;18.38;7.88;;;;;;;;;;5052504;28;20131;-62
2022/05/10 07:55:14;;;;;;;13.07;7.35;;;;;;;;;;5073812;28;20055;-63
2022/05/10 07:57:42;;;;;;;20.20;7.18;;;;;;;;;;5070389;28;20020;-63
2022/05/10 08:00:08;;;;;;;17.38;7.50;;;;;;;;;;5064354;28;20081;-63
2022/05/10 08:02:35;;;;;;;13.93;7.03;;;;;;;;;;5057553;28;20035;-63
2022/05/10 08:05:02;;;;;;;14.38;6.53;;;;;;;;;;5057732;28;20488;-63
2022/05/10 08:07:28;;;;;;;19.33;7.22;;;;;;;;;;5056311;28;20024;-63
2022/05/10 08:09:55;;;;;;;12.68;7.05;;;;;;;;;;5071070;28;20029;-63
2022/05/10 08:12:21;;;;;;;17.98;8.30;;;;;;;;;;5091597;28;20024;-63
2022/05/10 08:14:47;;;;;;;18.35;8.95;;;;;;;;;;5070857;28;20532;-64
2022/05/10 08:17:13;;;;;;;17.85;8.13;;;;;;;;;;5065618;28;20065;-63
2022/05/10 08:19:39;;;;;;;16.38;8.25;;;;;;;;;;5067589;28;20033;-63
2022/05/10 08:22:06;;;;;;;21.40;10.10;;;;;;;;;;5056891;28;20025;-63
2022/05/10 08:24:32;;;;;;;19.38;8.98;;;;;;;;;;5051141;28;20113;-63
2022/05/10 08:26:58;;;;;;;18.45;9.45;;;;;;;;;;5076302;28;20051;-64
2022/05/10 08:29:25;;;;;;;19.88;10.35;;;;;;;;;;5069552;28;20028;-63
2022/05/10 08:31:51;;;;;;;26.05;10.80;;;;;;;;;;5064751;28;20032;-63
2022/05/10 08:34:19;;;;;;;20.45;10.43;;;;;;;;;;5067293;28;20036;-64
2022/05/10 08:36:46;;;;;;;18.35;9.85;;;;;;;;;;5071027;28;20494;-63
2022/05/10 08:39:13;;;;;;;19.38;9.60;;;;;;;;;;5067682;28;20080;-63
2022/05/10 08:41:49;;;;;;;16.98;9.02;;;;;;;;;;5070899;28;20090;-64
2022/05/10 08:44:17;;;;;;;14.00;9.70;;;;;;;;;;5070649;28;20498;-64
2022/05/10 08:46:44;;;;;;;21.20;9.85;;;;;;;;;;5069505;28;20386;-65
2022/05/10 08:49:12;;;;;;;16.27;8.55;;;;;;;;;;5059713;28;20055;-64
2022/05/10 08:51:39;;;;;;;19.15;10.63;;;;;;;;;;5068773;28;20081;-64
2022/05/10 08:54:05;;;;;;;20.73;10.50;;;;;;;;;;5077699;28;20531;-63
2022/05/10 08:56:33;;;;;;;20.75;9.98;;;;;;;;;;5072314;28;20021;-63
2022/05/10 08:59:11;;;;;;;19.30;9.65;;;;;;;;;;5076466;28;20044;-63
2022/05/10 09:02:07;;;;;;;18.42;9.80;;;;;;;;;;5077165;28;20051;-64
2022/05/10 09:04:42;;;;;;;20.63;9.63;;;;;;;;;;5069594;28;20039;-63
2022/05/10 09:07:08;;;;;;;15.85;9.15;;;;;;;;;;5059840;28;20486;-63
2022/05/10 09:09:42;;;;;;;17.55;8.10;;;;;;;;;;5056430;28;20036;-62
2022/05/10 09:12:19;;;;;;;19.63;9.10;;;;;;;;;;5063552;28;20028;-63
2022/05/10 09:14:56;;;;;;;16.50;8.32;;;;;;;;;;5059721;28;20052;-61
2022/05/10 09:17:23;;;;;;;18.70;8.57;;;;;;;;;;5055306;28;20028;-62
2022/05/10 09:19:50;;;;;;;15.93;8.15;;;;;;;;;;5056214;28;20035;-62
2022/05/10 09:22:24;;;;;;;12.55;6.93;;;;;;;;;;5063217;28;20032;-62
2022/05/10 09:24:53;;;;;;;17.63;8.52;;;;;;;;;;5064292;28;20036;-63
2022/05/10 09:27:24;;;;;;;14.45;6.60;;;;;;;;;;5058156;28;20151;-62
2022/05/10 09:29:52;;;;;;;14.10;7.07;;;;;;;;;;5061021;28;20040;-61
2022/05/10 09:35:15;;;;;;;19.02;7.40;;;;;;;;;;5059738;28;20043;-61
2022/05/10 09:38:00;;;;;;;15.25;7.10;;;;;;;;;;5062628;28;20025;-61
2022/05/10 09:40:32;;;;;;;14.00;6.82;;;;;;;;;;5065241;28;20036;-61
2022/05/10 09:43:23;;;;;;;11.23;5.95;;;;;;;;;;5067611;28;20028;-62
2022/05/10 09:46:10;;;;;;;13.70;6.72;;;;;;;;;;5066068;28;20399;-62
2022/05/10 09:48:37;;;;;;;14.90;6.80;;;;;;;;;;5061361;28;20044;-61
2022/05/10 09:51:21;;;;;;;14.45;7.85;;;;;;;;;;5060855;28;20036;-61
2022/05/10 09:53:48;;;;;;;12.90;6.45;;;;;;;;;;5058722;28;20029;-61
2022/05/10 09:56:32;;;;;;;13.77;6.70;;;;;;;;;;5054970;28;20029;-62
2022/05/10 09:59:01;;;;;;;13.40;7.15;;;;;;;;;;5055545;28;20045;-62
2022/05/10 10:01:41;;;;;;;18.90;7.90;;;;;;;;;;5060168;28;20108;-62
2022/05/10 10:04:19;;;;;;;16.77;8.55;;;;;;;;;;5054072;28;20101;-61
2022/05/10 10:06:46;;;;;;;17.13;8.50;;;;;;;;;;5060105;28;20522;-61
2022/05/10 10:09:28;;;;;;;19.95;8.00;;;;;;;;;;5060967;28;20033;-59
2022/05/10 10:11:54;;;;;;;13.98;7.43;;;;;;;;;;5057294;28;20082;-60
2022/05/10 10:14:32;;;;;;;16.02;7.05;;;;;;;;;;5061456;28;20426;-61
2022/05/10 10:17:02;;;;;;;16.83;8.05;;;;;;;;;;5069065;28;20024;-61
2022/05/10 10:19:34;;;;;;;14.00;7.38;;;;;;;;;;5069861;28;20044;-63
2022/05/10 10:22:05;;;;;;;17.42;7.53;;;;;;;;;;5067917;28;20082;-62
2022/05/10 10:24:54;;;;;;;13.13;7.10;;;;;;;;;;5069841;28;20028;-61
2022/05/10 10:27:23;;;;;;;17.08;6.95;;;;;;;;;;5062066;28;20029;-61
2022/05/10 10:29:55;;;;;;;15.30;6.75;;;;;;;;;;5060622;28;20436;-62
2022/05/10 10:32:24;;;;;;;17.48;7.82;;;;;;;;;;5069530;28;20678;-61
2022/05/10 10:34:57;;;;;;;19.15;7.75;;;;;;;;;;5068711;28;20505;-61
2022/05/10 10:37:27;;;;;;;19.42;8.65;;;;;;;;;;5080710;28;20024;-62
2022/05/10 10:40:00;;;;;;;19.95;8.73;;;;;;;;;;5071534;28;20028;-61
2022/05/10 10:42:32;;;;;;;24.40;9.05;;;;;;;;;;5059965;28;20111;-62
2022/05/10 10:45:00;;;;;;;19.77;8.75;;;;;;;;;;5070274;28;20522;-61
2022/05/10 10:47:46;;;;;;;23.40;8.13;;;;;;;;;;5070266;28;20024;-61
2022/05/10 10:50:26;;;;;;;19.92;7.82;;;;;;;;;;5061010;28;20025;-61
2022/05/10 10:52:54;;;;;;;17.42;7.82;;;;;;;;;;5070106;28;20025;-61
2022/05/10 10:55:21;;;;;;;19.40;9.30;;;;;;;;;;5069383;28;20530;-61
2022/05/10 10:57:47;;;;;;;23.33;8.93;;;;;;;;;;5088035;28;20020;-61
2022/05/10 11:00:20;;;;;;;20.42;8.20;;;;;;;;;;5070669;28;20057;-61
2022/05/10 11:02:52;;;;;;;19.77;9.32;;;;;;;;;;5064841;28;20336;-61
2022/05/10 11:05:28;;;;;;;17.63;8.57;;;;;;;;;;5070742;28;20094;-61
2022/05/10 11:08:13;;;;;;;20.83;9.38;;;;;;;;;;5063791;28;20103;-61
2022/05/10 11:10:42;;;;;;;24.02;9.43;;;;;;;;;;5071465;28;20093;-61
2022/05/10 11:13:11;;;;;;;19.90;8.52;;;;;;;;;;5067993;28;20070;-61
2022/05/10 11:15:45;;;;;;;19.05;8.52;;;;;;;;;;5063845;28;20063;-61
2022/05/10 11:18:14;;;;;;;22.60;9.52;;;;;;;;;;5069293;28;20485;-61
2022/05/10 11:20:59;;;;;;;21.13;9.07;;;;;;;;;;5071556;28;20041;-61
2022/05/10 11:23:39;;;;;;;19.98;9.40;;;;;;;;;;5063787;28;20678;-61
2022/05/10 11:26:12;;;;;;;15.50;8.50;;;;;;;;;;5060071;28;20037;-61
2022/05/10 11:28:57;;;;;;;18.08;8.93;;;;;;;;;;5062394;28;20032;-61
2022/05/10 11:31:32;;;;;;;21.10;7.97;;;;;;;;;;5064660;28;20025;-62
2022/05/10 11:34:04;;;;;;;20.40;9.18;;;;;;;;;;5069957;28;20071;-62
2022/05/10 11:36:41;;;;;;;18.73;7.90;;;;;;;;;;5068120;28;20036;-61
2022/05/10 11:39:23;;;;;;;14.35;8.30;;;;;;;;;;5068013;28;20024;-61
2022/05/10 11:41:52;;;;;;;20.85;7.72;;;;;;;;;;5058328;28;20088;-61
2022/05/10 11:44:30;;;;;;;17.70;7.70;;;;;;;;;;5051670;28;20391;-62
2022/05/10 11:47:06;;;;;;;16.08;7.38;;;;;;;;;;5078377;28;20417;-62
2022/05/10 11:49:51;;;;;;;16.38;6.90;;;;;;;;;;5067325;28;20017;-62
2022/05/10 11:52:22;;;;;;;15.60;7.28;;;;;;;;;;5056218;28;20055;-60
2022/05/10 11:55:07;;;;;;;17.38;6.70;;;;;;;;;;5066150;28;20052;-61
2022/05/10 11:57:34;;;;;;;13.98;7.20;;;;;;;;;;5064852;28;20025;-61
2022/05/10 12:00:26;;;;;;;13.73;6.55;;;;;;;;;;5070167;28;20044;-61
2022/05/10 12:02:53;;;;;;;15.40;6.57;;;;;;;;;;5053768;28;20033;-61
2022/05/10 12:05:25;;;;;;;15.00;6.53;;;;;;;;;;5069539;28;20036;-61
2022/05/10 12:08:01;;;;;;;16.15;7.63;;;;;;;;;;5067536;28;20093;-61
2022/05/10 12:10:36;;;;;;;17.23;7.30;;;;;;;;;;5068498;28;20471;-60
2022/05/10 12:13:09;;;;;;;14.15;6.53;;;;;;;;;;5069217;28;20394;-61
2022/05/10 12:21:19;;;;;;;11.68;6.40;;;;;;;;;;5064806;28;20449;-61
2022/05/10 12:24:04;;;;;;;14.98;5.53;;;;;;;;;;5069552;28;20017;-60
2022/05/10 12:26:34;;;;;;;15.38;6.32;;;;;;;;;;5069303;28;20035;-61
2022/05/10 12:29:00;;;;;;;17.50;6.40;;;;;;;;;;5070472;28;20086;-61
2022/05/10 12:31:32;;;;;;;12.60;5.90;;;;;;;;;;5069384;28;20032;-61
2022/05/10 12:34:02;;;;;;;16.55;6.72;;;;;;;;;;5070092;28;20056;-61
2022/05/10 12:36:32;;;;;;;17.35;7.90;;;;;;;;;;5065387;28;20043;-61
2022/05/10 12:39:18;;;;;;;18.73;7.72;;;;;;;;;;5070253;28;20032;-62
2022/05/10 12:41:51;;;;;;;18.80;7.75;;;;;;;;;;5070009;28;20037;-60
2022/05/10 12:44:40;;;;;;;22.40;7.78;;;;;;;;;;5070521;28;20103;-61
2022/05/10 12:47:10;;;;;;;22.08;8.68;;;;;;;;;;5065649;28;20037;-61
2022/05/10 12:49:43;;;;;;;20.83;7.90;;;;;;;;;;5068149;28;20029;-61
2022/05/10 12:52:23;;;;;;;18.55;8.00;;;;;;;;;;5064098;28;20519;-61
2022/05/10 12:54:51;;;;;;;18.13;8.23;;;;;;;;;;5068382;28;20592;-61
2022/05/10 12:57:21;;;;;;;20.80;8.35;;;;;;;;;;5069160;28;20497;-61
2022/05/10 12:59:53;;;;;;;16.63;8.32;;;;;;;;;;5065101;28;20262;-61
2022/05/10 13:02:20;;;;;;;24.10;8.48;;;;;;;;;;5062248;28;20029;-61
2022/05/10 13:04:50;;;;;;;23.38;8.73;;;;;;;;;;5064877;28;20024;-61
2022/05/10 13:07:39;;;;;;;23.42;8.73;;;;;;;;;;5067280;28;20487;-61
2022/05/10 13:10:11;;;;;;;19.13;7.85;;;;;;;;;;5062986;28;20040;-61
2022/05/10 13:12:37;;;;;;;22.42;8.23;;;;;;;;;;5065498;28;20035;-61
2022/05/10 13:15:11;;;;;;;19.60;7.07;;;;;;;;;;5065325;28;20024;-62
2022/05/10 13:17:37;;;;;;;20.27;7.68;;;;;;;;;;5069464;28;20028;-61
2022/05/10 13:20:08;;;;;;;19.58;7.00;;;;;;;;;;5067339;28;20032;-61
2022/05/10 13:22:35;;;;;;;18.85;6.55;;;;;;;;;;5060936;28;20021;-61
2022/05/10 13:25:04;;;;;;;23.63;7.20;;;;;;;;;;5067578;28;20515;-61
2022/05/10 13:27:35;;;;;;;17.48;6.63;;;;;;;;;;5059307;28;20099;-62
2022/05/10 13:30:10;;;;;;;14.45;6.57;;;;;;;;;;5069840;28;20494;-61
2022/05/10 13:32:37;;;;;;;22.15;7.65;;;;;;;;;;5068874;28;20100;-61
2022/05/10 13:35:09;;;;;;;17.25;7.40;;;;;;;;;;5063220;28;20017;-62
2022/05/10 13:37:37;;;;;;;19.58;8.00;;;;;;;;;;5065238;28;20032;-62
2022/05/10 13:40:27;;;;;;;16.67;6.68;;;;;;;;;;5064667;28;20028;-61
2022/05/10 13:42:53;;;;;;;17.50;7.38;;;;;;;;;;5060673;28;20040;-61
2022/05/10 13:45:23;;;;;;;26.80;8.57;;;;;;;;;;5064350;28;20024;-61
2022/05/10 13:47:52;;;;;;;19.15;6.13;;;;;;;;;;5072446;28;20061;-61
2022/05/10 13:50:21;;;;;;;13.68;5.55;;;;;;;;;;5070100;28;20076;-61
2022/05/10 13:52:49;;;;;;;18.63;5.85;;;;;;;;;;5064988;28;20056;-61
2022/05/10 13:55:20;;;;;;;13.50;5.38;;;;;;;;;;5069338;28;20046;-61
2022/05/10 13:57:52;;;;;;;21.77;5.35;;;;;;;;;;5057552;28;20035;-61
2022/05/10 14:00:20;;;;;;;12.77;5.32;;;;;;;;;;5063168;28;20037;-62
2022/05/10 14:02:51;;;;;;;12.63;4.00;;;;;;;;;;5061794;28;20052;-62
2022/05/10 14:05:18;;;;;;;11.82;4.00;;;;;;;;;;5061645;28;20061;-62
2022/05/10 14:07:48;;;;;;;13.30;3.92;;;;;;;;;;5065860;28;20029;-62
2022/05/10 14:10:17;;;;;;;14.23;4.07;;;;;;;;;;5066446;28;20032;-63
2022/05/10 14:12:47;;;;;;;15.13;4.63;;;;;;;;;;5065646;28;20459;-62
2022/05/10 14:15:14;;;;;;;15.93;4.07;;;;;;;;;;5067928;28;20032;-61
2022/05/10 14:17:48;;;;;;;19.52;4.40;;;;;;;;;;5067161;28;20033;-62
2022/05/10 14:20:20;;;;;;;15.82;3.72;;;;;;;;;;5058780;28;20032;-61
2022/05/10 14:22:47;;;;;;;15.57;4.50;;;;;;;;;;5067603;28;20090;-61
2022/05/10 14:25:14;;;;;;;18.55;4.43;;;;;;;;;;5071254;28;20024;-62
2022/05/10 14:27:58;;;;;;;15.57;4.00;;;;;;;;;;5072955;28;20530;-62
2022/05/10 14:30:26;;;;;;;13.27;3.53;;;;;;;;;;5072076;28;20481;-62
2022/05/10 14:32:53;;;;;;;15.57;4.22;;;;;;;;;;5069984;28;20151;-61
2022/05/10 14:35:32;;;;;;;10.55;3.47;;;;;;;;;;5067276;28;20042;-61
2022/05/10 14:38:06;;;;;;;14.23;3.50;;;;;;;;;;5072650;28;20044;-61
2022/05/10 14:40:32;;;;;;;;;;;;;;;;;;5072880;28;20029;-61
2022/05/10 14:42:58;;;;;;;11.07;3.45;;;;;;;;;;5072932;28;20106;-61
2022/05/10 14:45:25;;;;;;;15.50;3.67;;;;;;;;;;5065022;28;20040;-61
2022/05/10 14:47:51;;;;;;;15.32;3.08;;;;;;;;;;5072659;28;20033;-61
2022/05/10 14:50:37;;;;;;;13.60;3.25;;;;;;;;;;5070688;28;20048;-62
2022/05/10 14:53:12;;;;;;;13.52;3.03;;;;;;;;;;5071315;28;20104;-61
2022/05/10 14:55:39;;;;;;;16.48;3.50;;;;;;;;;;5072308;28;20107;-62
2022/05/10 14:58:05;;;;;;;13.70;3.38;;;;;;;;;;5072602;28;20491;-62